LIPR/RMI METAR and TAF weather

Enter ICAO airport designator
Station Type Date Time Source
LIPR METAR 2021/06/24 06:50 UTC NOAA

LIPR 240650Z 35005KT 290V020 CAVOK 26/18 Q1015


Station Type Date Time Source
LIPR Decoded METAR 2021/06/24 06:50 UTC NOAA

Rimini, Italy (LIPR) 44-02N 012-37E 13M
Jun 24, 2021 - 02:50 AM EDT / 2021.06.24 0650 UTC
Wind: from the N (350 degrees) at 6 MPH (5 KT) (direction variable):0
Visibility: greater than 7 mile(s):0
Temperature: 78 F (26 C)
Dew Point: 64 F (18 C)
Relative Humidity: 61%
Pressure (altimeter): 29.97 in. Hg (1015 hPa)
ob: LIPR 240650Z 35005KT 290V020 CAVOK 26/18 Q1015
cycle: 7

Station Type Date Time Source
LIPR TAF 2021/06/24 06:21 UTC NOAA

TAF LIPR 240500Z 2406/2506 VRB05KT 9999 FEW040
BECMG 2407/2409 07010KT
BECMG 2416/2418 VRB05KT

Example: see airport list